createdAt,value
2023-09-27T00:02:01.263Z,5.72
2023-09-27T00:06:13.953Z,8.02
2023-09-27T00:10:27.029Z,5.90
2023-09-27T00:14:39.415Z,7.35
2023-09-27T00:18:51.856Z,5.32
2023-09-27T00:23:04.897Z,6.25
2023-09-27T00:27:17.844Z,5.65
2023-09-27T00:31:30.264Z,5.95
2023-09-27T00:35:43.188Z,5.75
2023-09-27T00:39:57.615Z,6.63
2023-09-27T00:44:10.060Z,5.82
2023-09-27T00:48:23.201Z,5.53
2023-09-27T00:52:36.089Z,6.25
2023-09-27T00:56:49.218Z,8.07
2023-09-27T01:01:02.210Z,6.00
2023-09-27T01:05:14.846Z,5.90
2023-09-27T01:09:27.435Z,5.68
2023-09-27T01:13:40.296Z,7.15
2023-09-27T01:18:00.145Z,6.70
2023-09-27T01:22:12.596Z,6.85
2023-09-27T01:26:25.490Z,6.65
2023-09-27T01:30:39.162Z,6.00
2023-09-27T01:34:51.573Z,5.72
2023-09-27T01:39:04.152Z,5.85
2023-09-27T01:43:16.577Z,5.00
2023-09-27T01:47:30.142Z,6.22
2023-09-27T01:51:42.640Z,4.93
2023-09-27T01:55:55.052Z,4.85
2023-09-27T02:00:12.753Z,4.97
2023-09-27T02:04:25.507Z,4.90
2023-09-27T02:08:38.045Z,4.95
2023-09-27T02:12:51.106Z,4.70
2023-09-27T02:17:03.777Z,4.55
2023-09-27T02:21:16.377Z,5.15
2023-09-27T02:25:28.851Z,4.95
2023-09-27T02:29:44.318Z,6.25
2023-09-27T02:33:56.775Z,6.18
2023-09-27T02:38:10.604Z,6.20
2023-09-27T02:42:22.936Z,6.05
2023-09-27T02:46:35.291Z,5.10
2023-09-27T02:50:51.688Z,4.85
2023-09-27T02:55:04.190Z,5.05
2023-09-27T02:59:17.251Z,4.97
2023-09-27T03:03:32.498Z,4.30
2023-09-27T03:07:46.608Z,4.68
2023-09-27T03:11:59.404Z,5.53
2023-09-27T03:16:12.215Z,5.63
2023-09-27T03:20:25.726Z,6.07
2023-09-27T03:24:39.599Z,4.80
2023-09-27T03:28:53.328Z,5.22
2023-09-27T03:33:07.344Z,4.78
2023-09-27T03:37:19.782Z,4.65
2023-09-27T03:41:32.305Z,4.10
2023-09-27T03:45:44.969Z,4.32
2023-09-27T03:49:57.774Z,4.60
2023-09-27T03:54:10.647Z,4.05
2023-09-27T03:58:23.210Z,4.57
2023-09-27T04:02:35.710Z,4.18
2023-09-27T04:06:50.665Z,4.35
2023-09-27T04:11:07.991Z,4.60
2023-09-27T04:15:20.362Z,4.50
2023-09-27T04:19:33.109Z,4.63
2023-09-27T04:23:45.888Z,4.70
2023-09-27T04:27:58.305Z,4.70
2023-09-27T04:32:11.304Z,5.05
2023-09-27T04:36:23.706Z,4.95
2023-09-27T04:40:36.076Z,4.95
2023-09-27T04:44:48.455Z,4.55
2023-09-27T04:49:00.825Z,4.50
2023-09-27T04:53:13.434Z,3.97
2023-09-27T04:57:26.255Z,4.72
2023-09-27T05:01:38.760Z,4.70
2023-09-27T05:05:51.156Z,5.25
2023-09-27T05:10:04.203Z,5.05
2023-09-27T05:14:16.519Z,5.10
2023-09-27T05:18:29.040Z,6.43
2023-09-27T05:22:42.578Z,6.65
2023-09-27T05:26:59.363Z,6.65
2023-09-27T05:31:11.904Z,7.47
2023-09-27T05:35:25.256Z,6.88
2023-09-27T05:39:37.682Z,6.80
2023-09-27T05:43:50.108Z,7.80
2023-09-27T05:48:02.921Z,6.93
2023-09-27T05:52:18.411Z,7.30
2023-09-27T05:56:30.901Z,7.70
2023-09-27T06:00:48.142Z,7.13
2023-09-27T06:05:02.006Z,7.43
2023-09-27T06:09:14.569Z,8.48
2023-09-27T06:13:27.918Z,8.75
2023-09-27T06:17:40.590Z,9.52
2023-09-27T06:21:55.660Z,8.48
2023-09-27T06:26:08.897Z,7.63
2023-09-27T06:30:21.928Z,7.85
2023-09-27T06:34:34.603Z,8.82
2023-09-27T06:38:47.761Z,9.20
2023-09-27T06:43:00.953Z,8.90
2023-09-27T06:47:15.249Z,7.05
2023-09-27T06:51:28.258Z,7.28
2023-09-27T06:55:41.014Z,6.80
2023-09-27T06:59:53.486Z,6.82
2023-09-27T07:04:06.426Z,6.78
2023-09-27T07:08:18.870Z,7.85
2023-09-27T07:12:32.297Z,9.02
2023-09-27T07:16:54.993Z,8.10
2023-09-27T07:21:16.073Z,9.10
2023-09-27T07:25:29.987Z,8.63
2023-09-27T07:29:42.390Z,8.30
2023-09-27T07:33:56.797Z,6.53
2023-09-27T07:38:11.166Z,8.80
2023-09-27T07:42:23.567Z,9.18
2023-09-27T07:46:36.897Z,8.75
2023-09-27T07:50:49.567Z,8.50
2023-09-27T07:55:05.746Z,7.40
2023-09-27T07:59:19.321Z,6.75
2023-09-27T08:03:31.853Z,6.03
2023-09-27T08:07:47.248Z,5.93
2023-09-27T08:11:59.755Z,6.80
2023-09-27T08:16:13.654Z,6.32
2023-09-27T08:20:26.136Z,5.07
2023-09-27T08:24:39.931Z,5.60
2023-09-27T08:28:52.534Z,6.28
2023-09-27T08:33:06.042Z,6.43
2023-09-27T08:37:19.414Z,7.13
2023-09-27T08:41:32.262Z,6.20
2023-09-27T08:45:47.076Z,6.18
2023-09-27T08:50:00.186Z,5.70
2023-09-27T08:54:17.993Z,5.22
2023-09-27T08:58:31.270Z,6.15
2023-09-27T09:02:48.879Z,7.38
2023-09-27T09:07:03.337Z,5.78
2023-09-27T09:11:20.507Z,6.45
2023-09-27T09:15:48.690Z,5.40
2023-09-27T09:20:16.997Z,4.43
2023-09-27T09:24:30.162Z,4.25
2023-09-27T09:29:01.630Z,4.53
2023-09-27T09:33:19.364Z,3.80
2023-09-27T09:37:31.815Z,3.97
2023-09-27T09:41:54.824Z,3.47
2023-09-27T09:46:09.870Z,4.15
2023-09-27T09:50:22.485Z,3.80
2023-09-27T09:54:49.068Z,3.47
2023-09-27T09:59:08.974Z,4.25
2023-09-27T10:03:24.081Z,3.75
2023-09-27T10:07:36.911Z,3.90
2023-09-27T10:11:50.274Z,4.10
2023-09-27T10:16:07.128Z,4.10
2023-09-27T10:20:23.765Z,3.75
2023-09-27T10:24:37.420Z,4.00
2023-09-27T10:29:05.453Z,3.05
2023-09-27T10:33:18.220Z,2.63
2023-09-27T10:38:00.040Z,2.60
2023-09-27T10:42:12.604Z,3.38
2023-09-27T10:46:25.679Z,2.60
2023-09-27T10:50:38.088Z,3.22
2023-09-27T10:54:51.957Z,3.20
2023-09-27T10:59:06.029Z,2.72
2023-09-27T11:03:20.346Z,2.78
2023-09-27T11:07:49.784Z,2.88
2023-09-27T11:12:02.299Z,3.30
2023-09-27T11:16:16.136Z,3.00
2023-09-27T11:20:28.402Z,2.80
2023-09-27T11:24:54.967Z,2.38
2023-09-27T11:29:12.697Z,2.50
2023-09-27T11:38:23.856Z,2.63
2023-09-27T11:47:15.859Z,2.55
2023-09-27T11:51:28.584Z,2.63
2023-09-27T11:55:41.299Z,3.05
2023-09-27T11:59:53.623Z,2.72
2023-09-27T12:04:07.214Z,3.55
2023-09-27T12:08:19.936Z,3.10
2023-09-27T12:12:32.472Z,2.22
2023-09-27T12:16:44.835Z,2.53
2023-09-27T12:20:59.187Z,2.67
2023-09-27T12:25:13.164Z,2.65
2023-09-27T12:29:25.585Z,2.83
2023-09-27T12:33:38.231Z,2.60
2023-09-27T12:37:51.238Z,2.35
2023-09-27T12:42:03.626Z,2.55
2023-09-27T12:46:16.126Z,2.90
2023-09-27T12:50:28.584Z,2.70
2023-09-27T12:54:41.057Z,2.75
2023-09-27T12:58:53.501Z,2.53
2023-09-27T13:03:08.607Z,2.50
2023-09-27T13:07:20.998Z,3.20
2023-09-27T13:11:34.626Z,2.97
2023-09-27T13:15:47.169Z,3.60
2023-09-27T13:19:59.936Z,3.20
2023-09-27T13:24:12.504Z,3.15
2023-09-27T13:28:25.338Z,3.20
2023-09-27T13:32:37.932Z,3.17
2023-09-27T13:36:51.199Z,3.00
2023-09-27T13:41:03.655Z,2.85
2023-09-27T13:45:16.152Z,2.70
2023-09-27T13:49:28.672Z,2.60
2023-09-27T13:53:41.073Z,3.22
2023-09-27T13:57:53.790Z,3.13
2023-09-27T14:02:07.677Z,3.13
2023-09-27T14:06:21.133Z,3.53
2023-09-27T14:10:33.639Z,3.10
2023-09-27T14:14:45.936Z,3.03
2023-09-27T14:18:59.305Z,3.03
2023-09-27T14:23:11.885Z,3.63
2023-09-27T14:27:26.549Z,3.67
2023-09-27T14:31:39.063Z,3.35
2023-09-27T14:35:53.209Z,3.55
2023-09-27T14:40:06.404Z,4.00
2023-09-27T14:44:18.865Z,3.28
2023-09-27T14:48:31.350Z,3.85
2023-09-27T14:52:43.931Z,3.83
2023-09-27T14:56:58.742Z,3.90
2023-09-27T15:01:11.321Z,3.47
2023-09-27T15:05:24.332Z,3.53
2023-09-27T15:09:36.774Z,3.83
2023-09-27T15:13:49.163Z,3.83
2023-09-27T15:18:01.614Z,4.30
2023-09-27T15:22:16.019Z,5.25
2023-09-27T15:26:28.601Z,5.57
2023-09-27T15:30:42.238Z,5.60
2023-09-27T15:34:54.558Z,5.03
2023-09-27T15:39:07.955Z,5.50
2023-09-27T15:43:20.414Z,5.18
2023-09-27T15:47:32.895Z,4.53
2023-09-27T15:51:45.698Z,4.90
2023-09-27T15:55:58.252Z,8.52
2023-09-27T16:00:12.838Z,6.75
2023-09-27T16:04:26.320Z,15.77
2023-09-27T16:08:40.197Z,9.98
2023-09-27T16:12:52.669Z,6.65
2023-09-27T16:17:05.636Z,6.10
2023-09-27T16:21:24.092Z,6.53
2023-09-27T16:25:37.687Z,5.65
2023-09-27T16:29:50.020Z,17.02
2023-09-27T16:34:04.180Z,6.55
2023-09-27T16:38:16.523Z,21.60
2023-09-27T16:42:29.449Z,10.30
2023-09-27T16:46:41.893Z,9.80
2023-09-27T16:50:54.333Z,8.15
2023-09-27T16:55:07.184Z,9.98
2023-09-27T16:59:19.528Z,7.88
2023-09-27T17:03:33.412Z,9.27
2023-09-27T17:07:48.069Z,23.35
2023-09-27T17:12:00.458Z,11.68
2023-09-27T17:16:13.476Z,14.60
2023-09-27T17:20:26.943Z,13.65
2023-09-27T17:24:39.231Z,9.63
2023-09-27T17:28:52.257Z,9.63
2023-09-27T17:33:05.316Z,8.43
2023-09-27T17:37:18.424Z,9.95
2023-09-27T17:41:31.141Z,9.07
2023-09-27T17:45:43.680Z,8.70
2023-09-27T17:49:56.159Z,14.00
2023-09-27T17:54:12.331Z,10.18
2023-09-27T17:58:24.703Z,12.68
2023-09-27T18:02:37.953Z,19.75
2023-09-27T18:06:50.530Z,12.43
2023-09-27T18:11:14.724Z,17.42
2023-09-27T18:15:28.685Z,9.98
2023-09-27T18:19:41.455Z,10.57
2023-09-27T18:23:55.800Z,10.07
2023-09-27T18:28:09.741Z,11.80
2023-09-27T18:32:22.801Z,11.35
2023-09-27T18:36:36.346Z,12.45
2023-09-27T18:40:50.214Z,14.07
2023-09-27T18:45:02.615Z,18.73
2023-09-27T18:49:14.975Z,15.85
2023-09-27T18:53:27.377Z,12.27
2023-09-27T18:57:39.947Z,12.25
2023-09-27T19:01:52.495Z,11.75
2023-09-27T19:06:05.111Z,13.20
2023-09-27T19:10:18.342Z,15.73
2023-09-27T19:14:30.695Z,14.50
2023-09-27T19:18:43.071Z,12.98
2023-09-27T19:22:55.915Z,14.38
2023-09-27T19:27:08.276Z,16.80
2023-09-27T19:31:20.752Z,17.10
2023-09-27T19:35:33.161Z,16.20
2023-09-27T19:39:45.509Z,15.32
2023-09-27T19:43:57.984Z,17.67
2023-09-27T19:48:10.353Z,9.98
2023-09-27T19:52:22.837Z,9.82
2023-09-27T19:56:35.975Z,9.32
2023-09-27T20:00:49.003Z,10.70
2023-09-27T20:05:01.551Z,17.30
2023-09-27T20:09:14.168Z,10.52
2023-09-27T20:13:26.570Z,16.85
2023-09-27T20:17:43.486Z,10.93
2023-09-27T20:21:57.071Z,12.60
2023-09-27T20:26:09.794Z,11.80
2023-09-27T20:30:22.266Z,14.48
2023-09-27T20:34:34.636Z,11.40
2023-09-27T20:38:52.097Z,8.00
2023-09-27T20:43:05.233Z,6.22
2023-09-27T20:47:18.036Z,7.40
2023-09-27T20:51:30.457Z,7.65
2023-09-27T20:55:43.030Z,5.65
2023-09-27T20:59:55.370Z,9.73
2023-09-27T21:04:08.246Z,6.47
2023-09-27T21:08:21.768Z,6.03
2023-09-27T21:12:34.158Z,6.35
2023-09-27T21:16:46.580Z,6.40
2023-09-27T21:20:58.849Z,6.18
2023-09-27T21:25:12.485Z,6.40
2023-09-27T21:29:26.768Z,5.80
2023-09-27T21:33:43.460Z,5.18
2023-09-27T21:37:57.398Z,5.65
2023-09-27T21:42:11.076Z,5.88
2023-09-27T21:46:23.496Z,5.90
2023-09-27T21:50:40.874Z,6.72
2023-09-27T21:54:54.150Z,6.18
2023-09-27T21:59:09.189Z,7.28
2023-09-27T22:03:27.430Z,6.32
2023-09-27T22:07:39.874Z,7.95
2023-09-27T22:11:53.420Z,7.20
2023-09-27T22:16:11.712Z,7.00
2023-09-27T22:20:25.798Z,5.68
2023-09-27T22:24:38.749Z,6.75
2023-09-27T22:28:51.063Z,5.50
2023-09-27T22:33:09.999Z,6.18
2023-09-27T22:37:25.554Z,6.10
2023-09-27T22:41:41.847Z,6.85
2023-09-27T22:45:54.196Z,6.43
2023-09-27T22:50:07.313Z,6.07
2023-09-27T22:54:22.049Z,7.22
2023-09-27T22:58:36.474Z,5.95
2023-09-27T23:02:59.360Z,5.43
2023-09-27T23:07:18.309Z,5.85
2023-09-27T23:11:40.791Z,6.10
2023-09-27T23:15:55.618Z,8.07
2023-09-27T23:20:10.650Z,6.30
2023-09-27T23:24:23.087Z,6.90
2023-09-27T23:28:38.077Z,7.47
2023-09-27T23:32:52.921Z,7.15
2023-09-27T23:37:15.885Z,5.95
2023-09-27T23:41:32.241Z,5.47
2023-09-27T23:45:46.870Z,5.68
2023-09-27T23:50:02.169Z,6.13
2023-09-27T23:54:15.121Z,5.57
2023-09-27T23:58:27.563Z,6.32
